<?xml version="1.0" encoding="UTF-8" standalone="no" ?>
<gpx xmlns="http://www.topografix.com/GPX/1/1" xmlns:xsi="http://www.w3.org/2001/XMLSchema-instance" xsi:schemaLocation="http://www.topografix.com/GPX/1/1 http://www.topografix.com/GPX/1/1/gpx.xsd" version="1.1" creator="VisuGPX - https://www.visugpx.com">
  <metadata>
    <name>LE FAOUËT (chapelle Ste Barbe)</name>
    <desc><![CDATA[Parking de la chapelle Ste Barbe. Partir à gauche du parking. Une boucle avec possibilté de manger au bar du gardien. Rando dit du CHAOS difficulté dans la partie basse le long du ruisseau, et trés humide par temps de pluies qui ont précédées la rando.]]></desc>
  </metadata>
  <trk>
    <name><![CDATA[LE FAOUËT (chapelle Ste Barbe)_1]]></name>
    <trkseg>
      <trkpt lat="48.0423" lon="-3.48082">
        <ele>171</ele>
        <time>2013-06-21T08:01:46Z</time>
      </trkpt>
      <trkpt lat="48.04231" lon="-3.48082">
        <ele>171</ele>
        <time>2013-06-21T08:02:15Z</time>
      </trkpt>
      <trkpt lat="48.04231" lon="-3.48081">
        <ele>170</ele>
        <time>2013-06-21T08:02:45Z</time>
      </trkpt>
      <trkpt lat="48.04231" lon="-3.48081">
        <ele>170</ele>
        <time>2013-06-21T08:03:15Z</time>
      </trkpt>
      <trkpt lat="48.04231" lon="-3.48081">
        <ele>170</ele>
        <time>2013-06-21T08:03:46Z</time>
      </trkpt>
      <trkpt lat="48.04232" lon="-3.4808">
        <ele>170</ele>
        <time>2013-06-21T08:04:16Z</time>
      </trkpt>
      <trkpt lat="48.04231" lon="-3.4808">
        <ele>170</ele>
        <time>2013-06-21T08:04:46Z</time>
      </trkpt>
      <trkpt lat="48.04231" lon="-3.48082">
        <ele>172</ele>
        <time>2013-06-21T08:05:16Z</time>
      </trkpt>
      <trkpt lat="48.0423" lon="-3.48083">
        <ele>172</ele>
        <time>2013-06-21T08:05:46Z</time>
      </trkpt>
      <trkpt lat="48.0423" lon="-3.48084">
        <ele>172</ele>
        <time>2013-06-21T08:06:16Z</time>
      </trkpt>
      <trkpt lat="48.04229" lon="-3.48085">
        <ele>172</ele>
        <time>2013-06-21T08:06:46Z</time>
      </trkpt>
      <trkpt lat="48.04229" lon="-3.48084">
        <ele>171</ele>
        <time>2013-06-21T08:07:17Z</time>
      </trkpt>
      <trkpt lat="48.0423" lon="-3.48084">
        <ele>171</ele>
        <time>2013-06-21T08:07:47Z</time>
      </trkpt>
      <trkpt lat="48.04229" lon="-3.48084">
        <ele>170</ele>
        <time>2013-06-21T08:08:17Z</time>
      </trkpt>
      <trkpt lat="48.04231" lon="-3.48082">
        <ele>170</ele>
        <time>2013-06-21T08:08:47Z</time>
      </trkpt>
      <trkpt lat="48.04231" lon="-3.48081">
        <ele>170</ele>
        <time>2013-06-21T08:09:17Z</time>
      </trkpt>
      <trkpt lat="48.04232" lon="-3.4808">
        <ele>170</ele>
        <time>2013-06-21T08:09:47Z</time>
      </trkpt>
      <trkpt lat="48.04232" lon="-3.48079">
        <ele>170</ele>
        <time>2013-06-21T08:10:18Z</time>
      </trkpt>
      <trkpt lat="48.04245" lon="-3.4807">
        <ele>171</ele>
        <time>2013-06-21T08:10:48Z</time>
      </trkpt>
      <trkpt lat="48.04264" lon="-3.4809">
        <ele>171</ele>
        <time>2013-06-21T08:11:18Z</time>
      </trkpt>
      <trkpt lat="48.0429" lon="-3.48116">
        <ele>171</ele>
        <time>2013-06-21T08:11:48Z</time>
      </trkpt>
      <trkpt lat="48.04319" lon="-3.48146">
        <ele>171</ele>
        <time>2013-06-21T08:12:18Z</time>
      </trkpt>
      <trkpt lat="48.04348" lon="-3.48175">
        <ele>171</ele>
        <time>2013-06-21T08:12:49Z</time>
      </trkpt>
      <trkpt lat="48.0437" lon="-3.48202">
        <ele>167</ele>
        <time>2013-06-21T08:13:19Z</time>
      </trkpt>
      <trkpt lat="48.04395" lon="-3.48234">
        <ele>167</ele>
        <time>2013-06-21T08:13:49Z</time>
      </trkpt>
      <trkpt lat="48.04415" lon="-3.48263">
        <ele>167</ele>
        <time>2013-06-21T08:14:20Z</time>
      </trkpt>
      <trkpt lat="48.04425" lon="-3.48276">
        <ele>163</ele>
        <time>2013-06-21T08:14:50Z</time>
      </trkpt>
      <trkpt lat="48.04449" lon="-3.48305">
        <ele>163</ele>
        <time>2013-06-21T08:15:20Z</time>
      </trkpt>
      <trkpt lat="48.04467" lon="-3.48323">
        <ele>158</ele>
        <time>2013-06-21T08:15:50Z</time>
      </trkpt>
      <trkpt lat="48.04482" lon="-3.48339">
        <ele>153</ele>
        <time>2013-06-21T08:16:21Z</time>
      </trkpt>
      <trkpt lat="48.04501" lon="-3.4836">
        <ele>153</ele>
        <time>2013-06-21T08:16:51Z</time>
      </trkpt>
      <trkpt lat="48.04619" lon="-3.48184">
        <ele>153</ele>
        <time>2013-06-21T08:17:21Z</time>
      </trkpt>
      <trkpt lat="48.04644" lon="-3.48212">
        <ele>149</ele>
        <time>2013-06-21T08:17:51Z</time>
      </trkpt>
      <trkpt lat="48.04674" lon="-3.48248">
        <ele>149</ele>
        <time>2013-06-21T08:18:21Z</time>
      </trkpt>
      <trkpt lat="48.04693" lon="-3.48274">
        <ele>144</ele>
        <time>2013-06-21T08:18:51Z</time>
      </trkpt>
      <trkpt lat="48.04716" lon="-3.48305">
        <ele>144</ele>
        <time>2013-06-21T08:19:22Z</time>
      </trkpt>
      <trkpt lat="48.04729" lon="-3.48401">
        <ele>144</ele>
        <time>2013-06-21T08:19:52Z</time>
      </trkpt>
      <trkpt lat="48.04741" lon="-3.48393">
        <ele>140</ele>
        <time>2013-06-21T08:20:22Z</time>
      </trkpt>
      <trkpt lat="48.04755" lon="-3.48384">
        <ele>136</ele>
        <time>2013-06-21T08:20:52Z</time>
      </trkpt>
      <trkpt lat="48.04782" lon="-3.484">
        <ele>136</ele>
        <time>2013-06-21T08:21:22Z</time>
      </trkpt>
      <trkpt lat="48.04796" lon="-3.48424">
        <ele>136</ele>
        <time>2013-06-21T08:21:53Z</time>
      </trkpt>
      <trkpt lat="48.04812" lon="-3.48462">
        <ele>140</ele>
        <time>2013-06-21T08:22:23Z</time>
      </trkpt>
      <trkpt lat="48.04834" lon="-3.48482">
        <ele>144</ele>
        <time>2013-06-21T08:22:53Z</time>
      </trkpt>
      <trkpt lat="48.0484" lon="-3.48453">
        <ele>144</ele>
        <time>2013-06-21T08:23:23Z</time>
      </trkpt>
      <trkpt lat="48.04841" lon="-3.48415">
        <ele>149</ele>
        <time>2013-06-21T08:23:53Z</time>
      </trkpt>
      <trkpt lat="48.04846" lon="-3.48361">
        <ele>153</ele>
        <time>2013-06-21T08:24:24Z</time>
      </trkpt>
      <trkpt lat="48.0486" lon="-3.48317">
        <ele>153</ele>
        <time>2013-06-21T08:24:54Z</time>
      </trkpt>
      <trkpt lat="48.04886" lon="-3.48287">
        <ele>157</ele>
        <time>2013-06-21T08:25:24Z</time>
      </trkpt>
      <trkpt lat="48.0491" lon="-3.48256">
        <ele>157</ele>
        <time>2013-06-21T08:25:54Z</time>
      </trkpt>
      <trkpt lat="48.04943" lon="-3.48242">
        <ele>157</ele>
        <time>2013-06-21T08:26:25Z</time>
      </trkpt>
      <trkpt lat="48.04977" lon="-3.48232">
        <ele>156</ele>
        <time>2013-06-21T08:26:55Z</time>
      </trkpt>
      <trkpt lat="48.05005" lon="-3.48229">
        <ele>156</ele>
        <time>2013-06-21T08:27:25Z</time>
      </trkpt>
      <trkpt lat="48.05034" lon="-3.48238">
        <ele>156</ele>
        <time>2013-06-21T08:27:55Z</time>
      </trkpt>
      <trkpt lat="48.05061" lon="-3.48259">
        <ele>157</ele>
        <time>2013-06-21T08:28:26Z</time>
      </trkpt>
      <trkpt lat="48.05081" lon="-3.48248">
        <ele>157</ele>
        <time>2013-06-21T08:28:56Z</time>
      </trkpt>
      <trkpt lat="48.05092" lon="-3.48215">
        <ele>157</ele>
        <time>2013-06-21T08:29:26Z</time>
      </trkpt>
      <trkpt lat="48.05106" lon="-3.48177">
        <ele>155</ele>
        <time>2013-06-21T08:29:57Z</time>
      </trkpt>
      <trkpt lat="48.05119" lon="-3.48144">
        <ele>155</ele>
        <time>2013-06-21T08:30:27Z</time>
      </trkpt>
      <trkpt lat="48.05119" lon="-3.48144">
        <ele>151</ele>
        <time>2013-06-21T08:30:57Z</time>
      </trkpt>
      <trkpt lat="48.05119" lon="-3.48144">
        <ele>151</ele>
        <time>2013-06-21T08:31:27Z</time>
      </trkpt>
      <trkpt lat="48.05119" lon="-3.48144">
        <ele>155</ele>
        <time>2013-06-21T08:31:57Z</time>
      </trkpt>
      <trkpt lat="48.05152" lon="-3.47977">
        <ele>155</ele>
        <time>2013-06-21T08:32:27Z</time>
      </trkpt>
      <trkpt lat="48.05155" lon="-3.47933">
        <ele>155</ele>
        <time>2013-06-21T08:32:57Z</time>
      </trkpt>
      <trkpt lat="48.05165" lon="-3.47889">
        <ele>155</ele>
        <time>2013-06-21T08:33:28Z</time>
      </trkpt>
      <trkpt lat="48.05173" lon="-3.4784">
        <ele>158</ele>
        <time>2013-06-21T08:33:58Z</time>
      </trkpt>
      <trkpt lat="48.05202" lon="-3.47836">
        <ele>158</ele>
        <time>2013-06-21T08:34:28Z</time>
      </trkpt>
      <trkpt lat="48.05232" lon="-3.47858">
        <ele>158</ele>
        <time>2013-06-21T08:34:58Z</time>
      </trkpt>
      <trkpt lat="48.05259" lon="-3.47878">
        <ele>154</ele>
        <time>2013-06-21T08:35:28Z</time>
      </trkpt>
      <trkpt lat="48.05283" lon="-3.479">
        <ele>154</ele>
        <time>2013-06-21T08:35:59Z</time>
      </trkpt>
      <trkpt lat="48.05299" lon="-3.47868">
        <ele>148</ele>
        <time>2013-06-21T08:36:29Z</time>
      </trkpt>
      <trkpt lat="48.05316" lon="-3.47841">
        <ele>148</ele>
        <time>2013-06-21T08:36:59Z</time>
      </trkpt>
      <trkpt lat="48.05334" lon="-3.47844">
        <ele>148</ele>
        <time>2013-06-21T08:37:29Z</time>
      </trkpt>
      <trkpt lat="48.05359" lon="-3.47848">
        <ele>148</ele>
        <time>2013-06-21T08:37:59Z</time>
      </trkpt>
      <trkpt lat="48.05388" lon="-3.47857">
        <ele>148</ele>
        <time>2013-06-21T08:38:30Z</time>
      </trkpt>
      <trkpt lat="48.05413" lon="-3.47861">
        <ele>152</ele>
        <time>2013-06-21T08:39:00Z</time>
      </trkpt>
      <trkpt lat="48.05443" lon="-3.47854">
        <ele>152</ele>
        <time>2013-06-21T08:39:30Z</time>
      </trkpt>
      <trkpt lat="48.05466" lon="-3.47861">
        <ele>148</ele>
        <time>2013-06-21T08:40:00Z</time>
      </trkpt>
      <trkpt lat="48.0548" lon="-3.47839">
        <ele>144</ele>
        <time>2013-06-21T08:40:30Z</time>
      </trkpt>
      <trkpt lat="48.05493" lon="-3.47825">
        <ele>144</ele>
        <time>2013-06-21T08:41:01Z</time>
      </trkpt>
      <trkpt lat="48.05512" lon="-3.47806">
        <ele>144</ele>
        <time>2013-06-21T08:41:31Z</time>
      </trkpt>
      <trkpt lat="48.05532" lon="-3.47781">
        <ele>148</ele>
        <time>2013-06-21T08:42:01Z</time>
      </trkpt>
      <trkpt lat="48.05548" lon="-3.47765">
        <ele>148</ele>
        <time>2013-06-21T08:42:31Z</time>
      </trkpt>
      <trkpt lat="48.05548" lon="-3.47769">
        <ele>148</ele>
        <time>2013-06-21T08:43:01Z</time>
      </trkpt>
      <trkpt lat="48.05547" lon="-3.47769">
        <ele>152</ele>
        <time>2013-06-21T08:43:32Z</time>
      </trkpt>
      <trkpt lat="48.05547" lon="-3.47771">
        <ele>152</ele>
        <time>2013-06-21T08:44:02Z</time>
      </trkpt>
      <trkpt lat="48.05565" lon="-3.478">
        <ele>152</ele>
        <time>2013-06-21T08:44:32Z</time>
      </trkpt>
      <trkpt lat="48.05588" lon="-3.47835">
        <ele>156</ele>
        <time>2013-06-21T08:45:02Z</time>
      </trkpt>
      <trkpt lat="48.05615" lon="-3.47854">
        <ele>156</ele>
        <time>2013-06-21T08:45:33Z</time>
      </trkpt>
      <trkpt lat="48.05636" lon="-3.47849">
        <ele>156</ele>
        <time>2013-06-21T08:46:03Z</time>
      </trkpt>
      <trkpt lat="48.05661" lon="-3.47853">
        <ele>156</ele>
        <time>2013-06-21T08:46:33Z</time>
      </trkpt>
      <trkpt lat="48.0569" lon="-3.47861">
        <ele>156</ele>
        <time>2013-06-21T08:47:04Z</time>
      </trkpt>
      <trkpt lat="48.05703" lon="-3.47838">
        <ele>155</ele>
        <time>2013-06-21T08:47:34Z</time>
      </trkpt>
      <trkpt lat="48.05711" lon="-3.4783">
        <ele>155</ele>
        <time>2013-06-21T08:48:04Z</time>
      </trkpt>
      <trkpt lat="48.05735" lon="-3.4783">
        <ele>155</ele>
        <time>2013-06-21T08:48:34Z</time>
      </trkpt>
      <trkpt lat="48.05756" lon="-3.47822">
        <ele>151</ele>
        <time>2013-06-21T08:49:04Z</time>
      </trkpt>
      <trkpt lat="48.05781" lon="-3.4783">
        <ele>151</ele>
        <time>2013-06-21T08:49:34Z</time>
      </trkpt>
      <trkpt lat="48.05808" lon="-3.47828">
        <ele>151</ele>
        <time>2013-06-21T08:50:04Z</time>
      </trkpt>
      <trkpt lat="48.05832" lon="-3.47795">
        <ele>151</ele>
        <time>2013-06-21T08:50:35Z</time>
      </trkpt>
      <trkpt lat="48.05847" lon="-3.4775">
        <ele>151</ele>
        <time>2013-06-21T08:51:05Z</time>
      </trkpt>
      <trkpt lat="48.05859" lon="-3.47709">
        <ele>147</ele>
        <time>2013-06-21T08:51:35Z</time>
      </trkpt>
      <trkpt lat="48.05873" lon="-3.47691">
        <ele>143</ele>
        <time>2013-06-21T08:52:05Z</time>
      </trkpt>
      <trkpt lat="48.059" lon="-3.47668">
        <ele>138</ele>
        <time>2013-06-21T08:52:35Z</time>
      </trkpt>
      <trkpt lat="48.05923" lon="-3.47624">
        <ele>138</ele>
        <time>2013-06-21T08:53:06Z</time>
      </trkpt>
      <trkpt lat="48.05938" lon="-3.47583">
        <ele>132</ele>
        <time>2013-06-21T08:53:36Z</time>
      </trkpt>
      <trkpt lat="48.0595" lon="-3.47547">
        <ele>128</ele>
        <time>2013-06-21T08:54:06Z</time>
      </trkpt>
      <trkpt lat="48.05923" lon="-3.47524">
        <ele>123</ele>
        <time>2013-06-21T08:54:36Z</time>
      </trkpt>
      <trkpt lat="48.05902" lon="-3.47511">
        <ele>119</ele>
        <time>2013-06-21T08:55:07Z</time>
      </trkpt>
      <trkpt lat="48.05894" lon="-3.47486">
        <ele>115</ele>
        <time>2013-06-21T08:55:37Z</time>
      </trkpt>
      <trkpt lat="48.05877" lon="-3.47467">
        <ele>115</ele>
        <time>2013-06-21T08:56:07Z</time>
      </trkpt>
      <trkpt lat="48.05853" lon="-3.47447">
        <ele>115</ele>
        <time>2013-06-21T08:56:37Z</time>
      </trkpt>
      <trkpt lat="48.05818" lon="-3.47432">
        <ele>115</ele>
        <time>2013-06-21T08:57:08Z</time>
      </trkpt>
      <trkpt lat="48.05785" lon="-3.47429">
        <ele>115</ele>
        <time>2013-06-21T08:57:38Z</time>
      </trkpt>
      <trkpt lat="48.05754" lon="-3.47428">
        <ele>116</ele>
        <time>2013-06-21T08:58:08Z</time>
      </trkpt>
      <trkpt lat="48.05752" lon="-3.47429">
        <ele>116</ele>
        <time>2013-06-21T08:58:38Z</time>
      </trkpt>
      <trkpt lat="48.05744" lon="-3.47412">
        <ele>116</ele>
        <time>2013-06-21T08:59:08Z</time>
      </trkpt>
      <trkpt lat="48.05745" lon="-3.47432">
        <ele>116</ele>
        <time>2013-06-21T08:59:38Z</time>
      </trkpt>
      <trkpt lat="48.05726" lon="-3.47468">
        <ele>118</ele>
        <time>2013-06-21T09:00:09Z</time>
      </trkpt>
      <trkpt lat="48.05697" lon="-3.47463">
        <ele>118</ele>
        <time>2013-06-21T09:00:39Z</time>
      </trkpt>
      <trkpt lat="48.05668" lon="-3.4746">
        <ele>118</ele>
        <time>2013-06-21T09:01:09Z</time>
      </trkpt>
      <trkpt lat="48.05638" lon="-3.47454">
        <ele>118</ele>
        <time>2013-06-21T09:01:39Z</time>
      </trkpt>
      <trkpt lat="48.05598" lon="-3.47447">
        <ele>118</ele>
        <time>2013-06-21T09:02:09Z</time>
      </trkpt>
      <trkpt lat="48.05569" lon="-3.47465">
        <ele>118</ele>
        <time>2013-06-21T09:02:39Z</time>
      </trkpt>
      <trkpt lat="48.05551" lon="-3.475">
        <ele>118</ele>
        <time>2013-06-21T09:03:10Z</time>
      </trkpt>
      <trkpt lat="48.05533" lon="-3.47521">
        <ele>118</ele>
        <time>2013-06-21T09:03:40Z</time>
      </trkpt>
      <trkpt lat="48.05524" lon="-3.47551">
        <ele>114</ele>
        <time>2013-06-21T09:04:10Z</time>
      </trkpt>
      <trkpt lat="48.05509" lon="-3.47578">
        <ele>114</ele>
        <time>2013-06-21T09:04:41Z</time>
      </trkpt>
      <trkpt lat="48.05499" lon="-3.47625">
        <ele>114</ele>
        <time>2013-06-21T09:05:11Z</time>
      </trkpt>
      <trkpt lat="48.0548" lon="-3.47647">
        <ele>114</ele>
        <time>2013-06-21T09:05:41Z</time>
      </trkpt>
      <trkpt lat="48.05468" lon="-3.47666">
        <ele>113</ele>
        <time>2013-06-21T09:06:11Z</time>
      </trkpt>
      <trkpt lat="48.05459" lon="-3.47683">
        <ele>113</ele>
        <time>2013-06-21T09:06:42Z</time>
      </trkpt>
      <trkpt lat="48.05438" lon="-3.47701">
        <ele>113</ele>
        <time>2013-06-21T09:07:12Z</time>
      </trkpt>
      <trkpt lat="48.05423" lon="-3.47708">
        <ele>113</ele>
        <time>2013-06-21T09:07:42Z</time>
      </trkpt>
      <trkpt lat="48.05411" lon="-3.47711">
        <ele>113</ele>
        <time>2013-06-21T09:08:12Z</time>
      </trkpt>
      <trkpt lat="48.05406" lon="-3.47723">
        <ele>112</ele>
        <time>2013-06-21T09:08:42Z</time>
      </trkpt>
      <trkpt lat="48.054" lon="-3.47721">
        <ele>112</ele>
        <time>2013-06-21T09:09:12Z</time>
      </trkpt>
      <trkpt lat="48.05396" lon="-3.47718">
        <ele>112</ele>
        <time>2013-06-21T09:09:43Z</time>
      </trkpt>
      <trkpt lat="48.05385" lon="-3.47721">
        <ele>112</ele>
        <time>2013-06-21T09:10:13Z</time>
      </trkpt>
      <trkpt lat="48.05376" lon="-3.47722">
        <ele>110</ele>
        <time>2013-06-21T09:10:43Z</time>
      </trkpt>
      <trkpt lat="48.05379" lon="-3.47722">
        <ele>110</ele>
        <time>2013-06-21T09:11:13Z</time>
      </trkpt>
      <trkpt lat="48.05389" lon="-3.47721">
        <ele>110</ele>
        <time>2013-06-21T09:11:43Z</time>
      </trkpt>
      <trkpt lat="48.05392" lon="-3.47719">
        <ele>110</ele>
        <time>2013-06-21T09:12:14Z</time>
      </trkpt>
      <trkpt lat="48.0539" lon="-3.47711">
        <ele>111</ele>
        <time>2013-06-21T09:12:44Z</time>
      </trkpt>
      <trkpt lat="48.05369" lon="-3.47704">
        <ele>111</ele>
        <time>2013-06-21T09:13:14Z</time>
      </trkpt>
      <trkpt lat="48.05353" lon="-3.47691">
        <ele>111</ele>
        <time>2013-06-21T09:13:44Z</time>
      </trkpt>
      <trkpt lat="48.05339" lon="-3.47687">
        <ele>111</ele>
        <time>2013-06-21T09:14:14Z</time>
      </trkpt>
      <trkpt lat="48.05323" lon="-3.47684">
        <ele>115</ele>
        <time>2013-06-21T09:14:44Z</time>
      </trkpt>
      <trkpt lat="48.0531" lon="-3.47664">
        <ele>115</ele>
        <time>2013-06-21T09:15:15Z</time>
      </trkpt>
      <trkpt lat="48.05296" lon="-3.4765">
        <ele>111</ele>
        <time>2013-06-21T09:15:45Z</time>
      </trkpt>
      <trkpt lat="48.0528" lon="-3.47643">
        <ele>111</ele>
        <time>2013-06-21T09:16:15Z</time>
      </trkpt>
      <trkpt lat="48.05268" lon="-3.47639">
        <ele>116</ele>
        <time>2013-06-21T09:16:45Z</time>
      </trkpt>
      <trkpt lat="48.05256" lon="-3.47631">
        <ele>116</ele>
        <time>2013-06-21T09:17:15Z</time>
      </trkpt>
      <trkpt lat="48.05243" lon="-3.47623">
        <ele>122</ele>
        <time>2013-06-21T09:17:45Z</time>
      </trkpt>
      <trkpt lat="48.05231" lon="-3.47608">
        <ele>122</ele>
        <time>2013-06-21T09:18:16Z</time>
      </trkpt>
      <trkpt lat="48.05229" lon="-3.47605">
        <ele>122</ele>
        <time>2013-06-21T09:18:46Z</time>
      </trkpt>
      <trkpt lat="48.05227" lon="-3.47606">
        <ele>122</ele>
        <time>2013-06-21T09:19:16Z</time>
      </trkpt>
      <trkpt lat="48.05229" lon="-3.47606">
        <ele>122</ele>
        <time>2013-06-21T09:19:46Z</time>
      </trkpt>
      <trkpt lat="48.05228" lon="-3.47605">
        <ele>123</ele>
        <time>2013-06-21T09:20:16Z</time>
      </trkpt>
      <trkpt lat="48.05229" lon="-3.47603">
        <ele>123</ele>
        <time>2013-06-21T09:20:46Z</time>
      </trkpt>
      <trkpt lat="48.05231" lon="-3.47604">
        <ele>123</ele>
        <time>2013-06-21T09:21:17Z</time>
      </trkpt>
      <trkpt lat="48.05229" lon="-3.47603">
        <ele>122</ele>
        <time>2013-06-21T09:21:47Z</time>
      </trkpt>
      <trkpt lat="48.05229" lon="-3.47596">
        <ele>122</ele>
        <time>2013-06-21T09:22:17Z</time>
      </trkpt>
      <trkpt lat="48.05228" lon="-3.4759">
        <ele>122</ele>
        <time>2013-06-21T09:22:47Z</time>
      </trkpt>
      <trkpt lat="48.05226" lon="-3.47587">
        <ele>122</ele>
        <time>2013-06-21T09:23:17Z</time>
      </trkpt>
      <trkpt lat="48.05224" lon="-3.47585">
        <ele>119</ele>
        <time>2013-06-21T09:23:47Z</time>
      </trkpt>
      <trkpt lat="48.05227" lon="-3.47579">
        <ele>114</ele>
        <time>2013-06-21T09:24:18Z</time>
      </trkpt>
      <trkpt lat="48.05229" lon="-3.47576">
        <ele>114</ele>
        <time>2013-06-21T09:24:48Z</time>
      </trkpt>
      <trkpt lat="48.05228" lon="-3.47565">
        <ele>110</ele>
        <time>2013-06-21T09:25:18Z</time>
      </trkpt>
      <trkpt lat="48.05218" lon="-3.47552">
        <ele>110</ele>
        <time>2013-06-21T09:25:48Z</time>
      </trkpt>
      <trkpt lat="48.05216" lon="-3.47542">
        <ele>110</ele>
        <time>2013-06-21T09:26:18Z</time>
      </trkpt>
      <trkpt lat="48.05211" lon="-3.4754">
        <ele>110</ele>
        <time>2013-06-21T09:26:48Z</time>
      </trkpt>
      <trkpt lat="48.05217" lon="-3.47549">
        <ele>110</ele>
        <time>2013-06-21T09:27:19Z</time>
      </trkpt>
      <trkpt lat="48.05217" lon="-3.47545">
        <ele>108</ele>
        <time>2013-06-21T09:27:49Z</time>
      </trkpt>
      <trkpt lat="48.0521" lon="-3.4755">
        <ele>108</ele>
        <time>2013-06-21T09:28:19Z</time>
      </trkpt>
      <trkpt lat="48.05204" lon="-3.47556">
        <ele>108</ele>
        <time>2013-06-21T09:28:49Z</time>
      </trkpt>
      <trkpt lat="48.05188" lon="-3.47575">
        <ele>106</ele>
        <time>2013-06-21T09:29:19Z</time>
      </trkpt>
      <trkpt lat="48.05171" lon="-3.47597">
        <ele>106</ele>
        <time>2013-06-21T09:29:49Z</time>
      </trkpt>
      <trkpt lat="48.05164" lon="-3.47593">
        <ele>106</ele>
        <time>2013-06-21T09:30:20Z</time>
      </trkpt>
      <trkpt lat="48.05156" lon="-3.47607">
        <ele>106</ele>
        <time>2013-06-21T09:30:50Z</time>
      </trkpt>
      <trkpt lat="48.05145" lon="-3.47636">
        <ele>106</ele>
        <time>2013-06-21T09:31:20Z</time>
      </trkpt>
      <trkpt lat="48.05126" lon="-3.4766">
        <ele>102</ele>
        <time>2013-06-21T09:31:50Z</time>
      </trkpt>
      <trkpt lat="48.05118" lon="-3.47672">
        <ele>102</ele>
        <time>2013-06-21T09:32:20Z</time>
      </trkpt>
      <trkpt lat="48.0511" lon="-3.47684">
        <ele>106</ele>
        <time>2013-06-21T09:32:51Z</time>
      </trkpt>
      <trkpt lat="48.05088" lon="-3.47681">
        <ele>102</ele>
        <time>2013-06-21T09:33:21Z</time>
      </trkpt>
      <trkpt lat="48.05071" lon="-3.47697">
        <ele>102</ele>
        <time>2013-06-21T09:33:51Z</time>
      </trkpt>
      <trkpt lat="48.0505" lon="-3.47724">
        <ele>102</ele>
        <time>2013-06-21T09:34:21Z</time>
      </trkpt>
      <trkpt lat="48.05029" lon="-3.47754">
        <ele>98</ele>
        <time>2013-06-21T09:34:52Z</time>
      </trkpt>
      <trkpt lat="48.05006" lon="-3.47785">
        <ele>98</ele>
        <time>2013-06-21T09:35:22Z</time>
      </trkpt>
      <trkpt lat="48.04985" lon="-3.47816">
        <ele>98</ele>
        <time>2013-06-21T09:35:52Z</time>
      </trkpt>
      <trkpt lat="48.0497" lon="-3.47851">
        <ele>94</ele>
        <time>2013-06-21T09:36:22Z</time>
      </trkpt>
      <trkpt lat="48.04956" lon="-3.47888">
        <ele>94</ele>
        <time>2013-06-21T09:36:52Z</time>
      </trkpt>
      <trkpt lat="48.04934" lon="-3.47919">
        <ele>94</ele>
        <time>2013-06-21T09:37:22Z</time>
      </trkpt>
      <trkpt lat="48.04911" lon="-3.47938">
        <ele>94</ele>
        <time>2013-06-21T09:37:53Z</time>
      </trkpt>
      <trkpt lat="48.04903" lon="-3.47933">
        <ele>90</ele>
        <time>2013-06-21T09:38:23Z</time>
      </trkpt>
      <trkpt lat="48.04895" lon="-3.47947">
        <ele>90</ele>
        <time>2013-06-21T09:38:53Z</time>
      </trkpt>
      <trkpt lat="48.04882" lon="-3.47954">
        <ele>90</ele>
        <time>2013-06-21T09:39:23Z</time>
      </trkpt>
      <trkpt lat="48.04869" lon="-3.4796">
        <ele>90</ele>
        <time>2013-06-21T09:39:54Z</time>
      </trkpt>
      <trkpt lat="48.04846" lon="-3.47969">
        <ele>90</ele>
        <time>2013-06-21T09:40:24Z</time>
      </trkpt>
      <trkpt lat="48.04833" lon="-3.47986">
        <ele>90</ele>
        <time>2013-06-21T09:40:54Z</time>
      </trkpt>
      <trkpt lat="48.04822" lon="-3.48007">
        <ele>90</ele>
        <time>2013-06-21T09:41:24Z</time>
      </trkpt>
      <trkpt lat="48.04803" lon="-3.48018">
        <ele>90</ele>
        <time>2013-06-21T09:41:54Z</time>
      </trkpt>
      <trkpt lat="48.04791" lon="-3.48009">
        <ele>90</ele>
        <time>2013-06-21T09:42:24Z</time>
      </trkpt>
      <trkpt lat="48.04779" lon="-3.48">
        <ele>86</ele>
        <time>2013-06-21T09:42:54Z</time>
      </trkpt>
      <trkpt lat="48.04759" lon="-3.47994">
        <ele>86</ele>
        <time>2013-06-21T09:43:25Z</time>
      </trkpt>
      <trkpt lat="48.04734" lon="-3.47997">
        <ele>86</ele>
        <time>2013-06-21T09:43:55Z</time>
      </trkpt>
      <trkpt lat="48.04711" lon="-3.47995">
        <ele>84</ele>
        <time>2013-06-21T09:44:25Z</time>
      </trkpt>
      <trkpt lat="48.04679" lon="-3.48005">
        <ele>84</ele>
        <time>2013-06-21T09:44:55Z</time>
      </trkpt>
      <trkpt lat="48.04652" lon="-3.48016">
        <ele>84</ele>
        <time>2013-06-21T09:45:25Z</time>
      </trkpt>
      <trkpt lat="48.04639" lon="-3.48011">
        <ele>84</ele>
        <time>2013-06-21T09:45:55Z</time>
      </trkpt>
      <trkpt lat="48.04612" lon="-3.48017">
        <ele>83</ele>
        <time>2013-06-21T09:46:26Z</time>
      </trkpt>
      <trkpt lat="48.04594" lon="-3.48009">
        <ele>83</ele>
        <time>2013-06-21T09:46:56Z</time>
      </trkpt>
      <trkpt lat="48.04598" lon="-3.48007">
        <ele>83</ele>
        <time>2013-06-21T09:47:26Z</time>
      </trkpt>
      <trkpt lat="48.04597" lon="-3.48008">
        <ele>83</ele>
        <time>2013-06-21T09:47:56Z</time>
      </trkpt>
      <trkpt lat="48.04585" lon="-3.47995">
        <ele>81</ele>
        <time>2013-06-21T09:48:26Z</time>
      </trkpt>
      <trkpt lat="48.04565" lon="-3.47983">
        <ele>81</ele>
        <time>2013-06-21T09:48:57Z</time>
      </trkpt>
      <trkpt lat="48.04548" lon="-3.4797">
        <ele>81</ele>
        <time>2013-06-21T09:49:27Z</time>
      </trkpt>
      <trkpt lat="48.04535" lon="-3.47945">
        <ele>81</ele>
        <time>2013-06-21T09:49:57Z</time>
      </trkpt>
      <trkpt lat="48.04523" lon="-3.47918">
        <ele>81</ele>
        <time>2013-06-21T09:50:27Z</time>
      </trkpt>
      <trkpt lat="48.04507" lon="-3.47891">
        <ele>80</ele>
        <time>2013-06-21T09:50:57Z</time>
      </trkpt>
      <trkpt lat="48.04482" lon="-3.47872">
        <ele>80</ele>
        <time>2013-06-21T09:51:27Z</time>
      </trkpt>
      <trkpt lat="48.04469" lon="-3.47841">
        <ele>80</ele>
        <time>2013-06-21T09:51:57Z</time>
      </trkpt>
      <trkpt lat="48.04457" lon="-3.47824">
        <ele>80</ele>
        <time>2013-06-21T09:52:28Z</time>
      </trkpt>
      <trkpt lat="48.04441" lon="-3.47806">
        <ele>80</ele>
        <time>2013-06-21T09:52:58Z</time>
      </trkpt>
      <trkpt lat="48.04422" lon="-3.47787">
        <ele>79</ele>
        <time>2013-06-21T09:53:28Z</time>
      </trkpt>
      <trkpt lat="48.04403" lon="-3.47767">
        <ele>79</ele>
        <time>2013-06-21T09:53:58Z</time>
      </trkpt>
      <trkpt lat="48.0438" lon="-3.47757">
        <ele>79</ele>
        <time>2013-06-21T09:54:28Z</time>
      </trkpt>
      <trkpt lat="48.04361" lon="-3.47748">
        <ele>79</ele>
        <time>2013-06-21T09:54:58Z</time>
      </trkpt>
      <trkpt lat="48.04336" lon="-3.47732">
        <ele>79</ele>
        <time>2013-06-21T09:55:29Z</time>
      </trkpt>
      <trkpt lat="48.04308" lon="-3.47709">
        <ele>76</ele>
        <time>2013-06-21T09:55:59Z</time>
      </trkpt>
      <trkpt lat="48.04289" lon="-3.47681">
        <ele>76</ele>
        <time>2013-06-21T09:56:29Z</time>
      </trkpt>
      <trkpt lat="48.04266" lon="-3.4767">
        <ele>76</ele>
        <time>2013-06-21T09:56:59Z</time>
      </trkpt>
      <trkpt lat="48.04242" lon="-3.47703">
        <ele>76</ele>
        <time>2013-06-21T09:57:29Z</time>
      </trkpt>
      <trkpt lat="48.04234" lon="-3.47742">
        <ele>80</ele>
        <time>2013-06-21T09:58:00Z</time>
      </trkpt>
      <trkpt lat="48.04227" lon="-3.47756">
        <ele>84</ele>
        <time>2013-06-21T09:58:30Z</time>
      </trkpt>
      <trkpt lat="48.04224" lon="-3.47763">
        <ele>84</ele>
        <time>2013-06-21T09:59:00Z</time>
      </trkpt>
      <trkpt lat="48.04222" lon="-3.47753">
        <ele>84</ele>
        <time>2013-06-21T09:59:30Z</time>
      </trkpt>
      <trkpt lat="48.04233" lon="-3.47744">
        <ele>84</ele>
        <time>2013-06-21T10:00:00Z</time>
      </trkpt>
      <trkpt lat="48.0422" lon="-3.47755">
        <ele>83</ele>
        <time>2013-06-21T10:00:30Z</time>
      </trkpt>
      <trkpt lat="48.04235" lon="-3.47763">
        <ele>83</ele>
        <time>2013-06-21T10:01:01Z</time>
      </trkpt>
      <trkpt lat="48.04256" lon="-3.47784">
        <ele>83</ele>
        <time>2013-06-21T10:01:31Z</time>
      </trkpt>
      <trkpt lat="48.04271" lon="-3.47815">
        <ele>83</ele>
        <time>2013-06-21T10:02:01Z</time>
      </trkpt>
      <trkpt lat="48.04287" lon="-3.47847">
        <ele>88</ele>
        <time>2013-06-21T10:02:31Z</time>
      </trkpt>
      <trkpt lat="48.04309" lon="-3.47874">
        <ele>88</ele>
        <time>2013-06-21T10:03:01Z</time>
      </trkpt>
      <trkpt lat="48.04338" lon="-3.479">
        <ele>92</ele>
        <time>2013-06-21T10:03:31Z</time>
      </trkpt>
      <trkpt lat="48.0436" lon="-3.47925">
        <ele>92</ele>
        <time>2013-06-21T10:04:01Z</time>
      </trkpt>
      <trkpt lat="48.04384" lon="-3.47955">
        <ele>92</ele>
        <time>2013-06-21T10:04:32Z</time>
      </trkpt>
      <trkpt lat="48.04416" lon="-3.47979">
        <ele>92</ele>
        <time>2013-06-21T10:05:02Z</time>
      </trkpt>
      <trkpt lat="48.04443" lon="-3.48002">
        <ele>93</ele>
        <time>2013-06-21T10:05:32Z</time>
      </trkpt>
      <trkpt lat="48.04455" lon="-3.48012">
        <ele>93</ele>
        <time>2013-06-21T10:06:02Z</time>
      </trkpt>
      <trkpt lat="48.04461" lon="-3.48035">
        <ele>97</ele>
        <time>2013-06-21T10:06:32Z</time>
      </trkpt>
      <trkpt lat="48.04459" lon="-3.48048">
        <ele>97</ele>
        <time>2013-06-21T10:07:03Z</time>
      </trkpt>
      <trkpt lat="48.04455" lon="-3.48052">
        <ele>101</ele>
        <time>2013-06-21T10:07:33Z</time>
      </trkpt>
      <trkpt lat="48.04438" lon="-3.48046">
        <ele>105</ele>
        <time>2013-06-21T10:08:03Z</time>
      </trkpt>
      <trkpt lat="48.0442" lon="-3.48044">
        <ele>105</ele>
        <time>2013-06-21T10:08:33Z</time>
      </trkpt>
      <trkpt lat="48.04404" lon="-3.48041">
        <ele>109</ele>
        <time>2013-06-21T10:09:03Z</time>
      </trkpt>
      <trkpt lat="48.04387" lon="-3.4803">
        <ele>113</ele>
        <time>2013-06-21T10:09:33Z</time>
      </trkpt>
      <trkpt lat="48.04368" lon="-3.48024">
        <ele>117</ele>
        <time>2013-06-21T10:10:04Z</time>
      </trkpt>
      <trkpt lat="48.04354" lon="-3.48019">
        <ele>117</ele>
        <time>2013-06-21T10:10:34Z</time>
      </trkpt>
      <trkpt lat="48.04337" lon="-3.4802">
        <ele>125</ele>
        <time>2013-06-21T10:11:04Z</time>
      </trkpt>
      <trkpt lat="48.04322" lon="-3.48024">
        <ele>125</ele>
        <time>2013-06-21T10:11:34Z</time>
      </trkpt>
      <trkpt lat="48.04307" lon="-3.48018">
        <ele>129</ele>
        <time>2013-06-21T10:12:04Z</time>
      </trkpt>
      <trkpt lat="48.04287" lon="-3.48007">
        <ele>134</ele>
        <time>2013-06-21T10:12:34Z</time>
      </trkpt>
      <trkpt lat="48.04268" lon="-3.47998">
        <ele>134</ele>
        <time>2013-06-21T10:13:05Z</time>
      </trkpt>
      <trkpt lat="48.04257" lon="-3.47991">
        <ele>139</ele>
        <time>2013-06-21T10:13:35Z</time>
      </trkpt>
      <trkpt lat="48.04254" lon="-3.47981">
        <ele>139</ele>
        <time>2013-06-21T10:14:05Z</time>
      </trkpt>
      <trkpt lat="48.04244" lon="-3.47992">
        <ele>139</ele>
        <time>2013-06-21T10:14:35Z</time>
      </trkpt>
      <trkpt lat="48.04234" lon="-3.47987">
        <ele>144</ele>
        <time>2013-06-21T10:15:05Z</time>
      </trkpt>
      <trkpt lat="48.0422" lon="-3.4797">
        <ele>150</ele>
        <time>2013-06-21T10:15:36Z</time>
      </trkpt>
      <trkpt lat="48.04214" lon="-3.47971">
        <ele>154</ele>
        <time>2013-06-21T10:16:06Z</time>
      </trkpt>
      <trkpt lat="48.04214" lon="-3.47968">
        <ele>154</ele>
        <time>2013-06-21T10:16:36Z</time>
      </trkpt>
      <trkpt lat="48.04213" lon="-3.47972">
        <ele>154</ele>
        <time>2013-06-21T10:17:06Z</time>
      </trkpt>
      <trkpt lat="48.04203" lon="-3.47977">
        <ele>154</ele>
        <time>2013-06-21T10:17:36Z</time>
      </trkpt>
      <trkpt lat="48.04206" lon="-3.47992">
        <ele>158</ele>
        <time>2013-06-21T10:18:07Z</time>
      </trkpt>
      <trkpt lat="48.04208" lon="-3.47997">
        <ele>158</ele>
        <time>2013-06-21T10:18:37Z</time>
      </trkpt>
      <trkpt lat="48.04209" lon="-3.47996">
        <ele>158</ele>
        <time>2013-06-21T10:19:07Z</time>
      </trkpt>
      <trkpt lat="48.0421" lon="-3.47992">
        <ele>159</ele>
        <time>2013-06-21T10:19:37Z</time>
      </trkpt>
      <trkpt lat="48.0421" lon="-3.47991">
        <ele>159</ele>
        <time>2013-06-21T10:20:07Z</time>
      </trkpt>
      <trkpt lat="48.04208" lon="-3.47991">
        <ele>159</ele>
        <time>2013-06-21T10:20:37Z</time>
      </trkpt>
      <trkpt lat="48.04206" lon="-3.47994">
        <ele>159</ele>
        <time>2013-06-21T10:21:07Z</time>
      </trkpt>
      <trkpt lat="48.04205" lon="-3.47995">
        <ele>158</ele>
        <time>2013-06-21T10:21:38Z</time>
      </trkpt>
      <trkpt lat="48.04205" lon="-3.47996">
        <ele>158</ele>
        <time>2013-06-21T10:22:08Z</time>
      </trkpt>
      <trkpt lat="48.04204" lon="-3.47994">
        <ele>158</ele>
        <time>2013-06-21T10:22:38Z</time>
      </trkpt>
      <trkpt lat="48.0421" lon="-3.47999">
        <ele>158</ele>
        <time>2013-06-21T10:23:08Z</time>
      </trkpt>
      <trkpt lat="48.04213" lon="-3.48">
        <ele>158</ele>
        <time>2013-06-21T10:23:38Z</time>
      </trkpt>
      <trkpt lat="48.04214" lon="-3.47997">
        <ele>158</ele>
        <time>2013-06-21T10:24:08Z</time>
      </trkpt>
      <trkpt lat="48.04216" lon="-3.47994">
        <ele>158</ele>
        <time>2013-06-21T10:24:39Z</time>
      </trkpt>
      <trkpt lat="48.04212" lon="-3.48001">
        <ele>158</ele>
        <time>2013-06-21T10:25:09Z</time>
      </trkpt>
      <trkpt lat="48.0421" lon="-3.48">
        <ele>158</ele>
        <time>2013-06-21T10:25:39Z</time>
      </trkpt>
      <trkpt lat="48.0421" lon="-3.47999">
        <ele>157</ele>
        <time>2013-06-21T10:26:09Z</time>
      </trkpt>
      <trkpt lat="48.04194" lon="-3.47996">
        <ele>157</ele>
        <time>2013-06-21T10:26:39Z</time>
      </trkpt>
      <trkpt lat="48.04205" lon="-3.47999">
        <ele>159</ele>
        <time>2013-06-21T10:27:09Z</time>
      </trkpt>
      <trkpt lat="48.04207" lon="-3.48002">
        <ele>159</ele>
        <time>2013-06-21T10:27:40Z</time>
      </trkpt>
      <trkpt lat="48.0421" lon="-3.47995">
        <ele>159</ele>
        <time>2013-06-21T10:28:10Z</time>
      </trkpt>
      <trkpt lat="48.0421" lon="-3.47997">
        <ele>159</ele>
        <time>2013-06-21T10:28:40Z</time>
      </trkpt>
      <trkpt lat="48.04211" lon="-3.47996">
        <ele>159</ele>
        <time>2013-06-21T10:29:10Z</time>
      </trkpt>
      <trkpt lat="48.04213" lon="-3.47994">
        <ele>159</ele>
        <time>2013-06-21T10:29:40Z</time>
      </trkpt>
      <trkpt lat="48.0421" lon="-3.47996">
        <ele>159</ele>
        <time>2013-06-21T10:30:10Z</time>
      </trkpt>
      <trkpt lat="48.04212" lon="-3.47991">
        <ele>157</ele>
        <time>2013-06-21T10:30:40Z</time>
      </trkpt>
      <trkpt lat="48.04211" lon="-3.47991">
        <ele>157</ele>
        <time>2013-06-21T10:31:11Z</time>
      </trkpt>
      <trkpt lat="48.04212" lon="-3.47994">
        <ele>157</ele>
        <time>2013-06-21T10:31:41Z</time>
      </trkpt>
      <trkpt lat="48.04209" lon="-3.47997">
        <ele>157</ele>
        <time>2013-06-21T10:32:11Z</time>
      </trkpt>
      <trkpt lat="48.04211" lon="-3.47998">
        <ele>157</ele>
        <time>2013-06-21T10:32:41Z</time>
      </trkpt>
      <trkpt lat="48.04211" lon="-3.47994">
        <ele>157</ele>
        <time>2013-06-21T10:33:11Z</time>
      </trkpt>
      <trkpt lat="48.0421" lon="-3.47999">
        <ele>158</ele>
        <time>2013-06-21T10:33:41Z</time>
      </trkpt>
      <trkpt lat="48.04211" lon="-3.48005">
        <ele>158</ele>
        <time>2013-06-21T10:34:12Z</time>
      </trkpt>
      <trkpt lat="48.04216" lon="-3.48003">
        <ele>158</ele>
        <time>2013-06-21T10:34:42Z</time>
      </trkpt>
      <trkpt lat="48.04214" lon="-3.48001">
        <ele>157</ele>
        <time>2013-06-21T10:35:12Z</time>
      </trkpt>
      <trkpt lat="48.04215" lon="-3.48001">
        <ele>157</ele>
        <time>2013-06-21T10:35:42Z</time>
      </trkpt>
      <trkpt lat="48.04213" lon="-3.48">
        <ele>157</ele>
        <time>2013-06-21T10:36:12Z</time>
      </trkpt>
      <trkpt lat="48.04217" lon="-3.47993">
        <ele>157</ele>
        <time>2013-06-21T10:36:42Z</time>
      </trkpt>
      <trkpt lat="48.04212" lon="-3.47997">
        <ele>157</ele>
        <time>2013-06-21T10:37:13Z</time>
      </trkpt>
      <trkpt lat="48.04213" lon="-3.48001">
        <ele>157</ele>
        <time>2013-06-21T10:37:43Z</time>
      </trkpt>
      <trkpt lat="48.04213" lon="-3.47998">
        <ele>157</ele>
        <time>2013-06-21T10:38:13Z</time>
      </trkpt>
      <trkpt lat="48.04211" lon="-3.47999">
        <ele>157</ele>
        <time>2013-06-21T10:38:43Z</time>
      </trkpt>
      <trkpt lat="48.04208" lon="-3.47997">
        <ele>158</ele>
        <time>2013-06-21T10:39:13Z</time>
      </trkpt>
      <trkpt lat="48.04209" lon="-3.47996">
        <ele>158</ele>
        <time>2013-06-21T10:39:43Z</time>
      </trkpt>
      <trkpt lat="48.04209" lon="-3.47996">
        <ele>158</ele>
        <time>2013-06-21T10:40:14Z</time>
      </trkpt>
      <trkpt lat="48.04206" lon="-3.47998">
        <ele>158</ele>
        <time>2013-06-21T10:40:44Z</time>
      </trkpt>
      <trkpt lat="48.04207" lon="-3.47998">
        <ele>158</ele>
        <time>2013-06-21T10:41:14Z</time>
      </trkpt>
      <trkpt lat="48.0421" lon="-3.47998">
        <ele>158</ele>
        <time>2013-06-21T10:41:44Z</time>
      </trkpt>
      <trkpt lat="48.04212" lon="-3.47996">
        <ele>157</ele>
        <time>2013-06-21T10:42:14Z</time>
      </trkpt>
      <trkpt lat="48.04211" lon="-3.47996">
        <ele>157</ele>
        <time>2013-06-21T10:42:44Z</time>
      </trkpt>
      <trkpt lat="48.04212" lon="-3.47998">
        <ele>157</ele>
        <time>2013-06-21T10:43:14Z</time>
      </trkpt>
      <trkpt lat="48.04212" lon="-3.47997">
        <ele>155</ele>
        <time>2013-06-21T10:43:45Z</time>
      </trkpt>
      <trkpt lat="48.04213" lon="-3.47998">
        <ele>155</ele>
        <time>2013-06-21T10:44:15Z</time>
      </trkpt>
      <trkpt lat="48.04214" lon="-3.48">
        <ele>155</ele>
        <time>2013-06-21T10:44:45Z</time>
      </trkpt>
      <trkpt lat="48.0421" lon="-3.48003">
        <ele>155</ele>
        <time>2013-06-21T10:45:15Z</time>
      </trkpt>
      <trkpt lat="48.04212" lon="-3.48001">
        <ele>155</ele>
        <time>2013-06-21T10:45:45Z</time>
      </trkpt>
      <trkpt lat="48.04205" lon="-3.48001">
        <ele>155</ele>
        <time>2013-06-21T10:46:16Z</time>
      </trkpt>
      <trkpt lat="48.04211" lon="-3.47997">
        <ele>155</ele>
        <time>2013-06-21T10:46:46Z</time>
      </trkpt>
      <trkpt lat="48.04217" lon="-3.47996">
        <ele>155</ele>
        <time>2013-06-21T10:47:16Z</time>
      </trkpt>
      <trkpt lat="48.04214" lon="-3.47998">
        <ele>155</ele>
        <time>2013-06-21T10:47:46Z</time>
      </trkpt>
      <trkpt lat="48.04209" lon="-3.47994">
        <ele>156</ele>
        <time>2013-06-21T10:48:16Z</time>
      </trkpt>
      <trkpt lat="48.0421" lon="-3.47997">
        <ele>156</ele>
        <time>2013-06-21T10:48:46Z</time>
      </trkpt>
      <trkpt lat="48.04209" lon="-3.47996">
        <ele>156</ele>
        <time>2013-06-21T10:49:17Z</time>
      </trkpt>
      <trkpt lat="48.0421" lon="-3.47994">
        <ele>156</ele>
        <time>2013-06-21T10:49:47Z</time>
      </trkpt>
      <trkpt lat="48.04207" lon="-3.47987">
        <ele>156</ele>
        <time>2013-06-21T10:50:17Z</time>
      </trkpt>
      <trkpt lat="48.04205" lon="-3.47991">
        <ele>156</ele>
        <time>2013-06-21T10:50:47Z</time>
      </trkpt>
      <trkpt lat="48.04208" lon="-3.47996">
        <ele>156</ele>
        <time>2013-06-21T10:51:17Z</time>
      </trkpt>
      <trkpt lat="48.0421" lon="-3.47994">
        <ele>156</ele>
        <time>2013-06-21T10:51:48Z</time>
      </trkpt>
      <trkpt lat="48.0421" lon="-3.47996">
        <ele>156</ele>
        <time>2013-06-21T10:52:17Z</time>
      </trkpt>
      <trkpt lat="48.0421" lon="-3.47996">
        <ele>157</ele>
        <time>2013-06-21T10:52:48Z</time>
      </trkpt>
      <trkpt lat="48.04204" lon="-3.47992">
        <ele>157</ele>
        <time>2013-06-21T10:53:18Z</time>
      </trkpt>
      <trkpt lat="48.04208" lon="-3.47997">
        <ele>157</ele>
        <time>2013-06-21T10:53:48Z</time>
      </trkpt>
      <trkpt lat="48.04206" lon="-3.47997">
        <ele>157</ele>
        <time>2013-06-21T10:54:18Z</time>
      </trkpt>
      <trkpt lat="48.04211" lon="-3.47998">
        <ele>157</ele>
        <time>2013-06-21T10:54:48Z</time>
      </trkpt>
      <trkpt lat="48.04209" lon="-3.4799">
        <ele>156</ele>
        <time>2013-06-21T10:55:18Z</time>
      </trkpt>
      <trkpt lat="48.04206" lon="-3.47994">
        <ele>156</ele>
        <time>2013-06-21T10:55:49Z</time>
      </trkpt>
      <trkpt lat="48.04208" lon="-3.47992">
        <ele>156</ele>
        <time>2013-06-21T10:56:19Z</time>
      </trkpt>
      <trkpt lat="48.04212" lon="-3.4799">
        <ele>156</ele>
        <time>2013-06-21T10:56:49Z</time>
      </trkpt>
      <trkpt lat="48.04211" lon="-3.47994">
        <ele>156</ele>
        <time>2013-06-21T10:57:19Z</time>
      </trkpt>
      <trkpt lat="48.04208" lon="-3.47993">
        <ele>157</ele>
        <time>2013-06-21T10:57:49Z</time>
      </trkpt>
      <trkpt lat="48.04203" lon="-3.47992">
        <ele>157</ele>
        <time>2013-06-21T10:58:19Z</time>
      </trkpt>
      <trkpt lat="48.04204" lon="-3.47993">
        <ele>157</ele>
        <time>2013-06-21T10:58:50Z</time>
      </trkpt>
      <trkpt lat="48.04207" lon="-3.47994">
        <ele>158</ele>
        <time>2013-06-21T10:59:20Z</time>
      </trkpt>
      <trkpt lat="48.04209" lon="-3.47992">
        <ele>158</ele>
        <time>2013-06-21T10:59:50Z</time>
      </trkpt>
      <trkpt lat="48.0421" lon="-3.47994">
        <ele>158</ele>
        <time>2013-06-21T11:00:20Z</time>
      </trkpt>
      <trkpt lat="48.04215" lon="-3.48013">
        <ele>158</ele>
        <time>2013-06-21T11:00:50Z</time>
      </trkpt>
      <trkpt lat="48.0421" lon="-3.47994">
        <ele>158</ele>
        <time>2013-06-21T11:01:20Z</time>
      </trkpt>
      <trkpt lat="48.04211" lon="-3.47995">
        <ele>158</ele>
        <time>2013-06-21T11:01:51Z</time>
      </trkpt>
      <trkpt lat="48.04214" lon="-3.48004">
        <ele>157</ele>
        <time>2013-06-21T11:03:51Z</time>
      </trkpt>
      <trkpt lat="48.04205" lon="-3.47983">
        <ele>157</ele>
        <time>2013-06-21T11:04:21Z</time>
      </trkpt>
      <trkpt lat="48.04204" lon="-3.47985">
        <ele>157</ele>
        <time>2013-06-21T11:04:52Z</time>
      </trkpt>
      <trkpt lat="48.04208" lon="-3.4799">
        <ele>157</ele>
        <time>2013-06-21T11:05:22Z</time>
      </trkpt>
      <trkpt lat="48.04206" lon="-3.47991">
        <ele>157</ele>
        <time>2013-06-21T11:05:52Z</time>
      </trkpt>
      <trkpt lat="48.04206" lon="-3.47991">
        <ele>157</ele>
        <time>2013-06-21T11:06:22Z</time>
      </trkpt>
      <trkpt lat="48.04204" lon="-3.47999">
        <ele>157</ele>
        <time>2013-06-21T11:06:52Z</time>
      </trkpt>
      <trkpt lat="48.04204" lon="-3.48004">
        <ele>157</ele>
        <time>2013-06-21T11:07:22Z</time>
      </trkpt>
      <trkpt lat="48.04203" lon="-3.48004">
        <ele>158</ele>
        <time>2013-06-21T11:07:53Z</time>
      </trkpt>
      <trkpt lat="48.04205" lon="-3.48004">
        <ele>158</ele>
        <time>2013-06-21T11:08:23Z</time>
      </trkpt>
      <trkpt lat="48.04203" lon="-3.48005">
        <ele>158</ele>
        <time>2013-06-21T11:08:53Z</time>
      </trkpt>
      <trkpt lat="48.042" lon="-3.48003">
        <ele>158</ele>
        <time>2013-06-21T11:09:23Z</time>
      </trkpt>
      <trkpt lat="48.04206" lon="-3.48003">
        <ele>158</ele>
        <time>2013-06-21T11:09:53Z</time>
      </trkpt>
      <trkpt lat="48.04206" lon="-3.48008">
        <ele>153</ele>
        <time>2013-06-21T11:10:23Z</time>
      </trkpt>
    </trkseg>
  </trk>
</gpx>